Time;durP1;ratioP1;P1;durP2;ratioP2;P2;SDS_P1;SDS_P2;PMS_P1;PMS_P2;Temp;Humidity;BMP_temperature;BMP_pressure;BME280_temperature;BME280_humidity;BME280_pressure;Samples;Min_cycle;Max_cycle;Signal;HPM_P1;HPM_P2
2024/04/05 00:00:13;;;;;;;7.20;2.27;;;12.20;99.90;;;;;;4197512;28;20223;-54
2024/04/05 00:02:13;;;;;;;6.50;2.57;;;12.20;99.90;;;;;;4197375;28;20222;-54
2024/04/05 00:04:14;;;;;;;8.27;2.13;;;12.20;99.90;;;;;;4197395;28;20185;-54
2024/04/05 00:06:15;;;;;;;8.23;2.50;;;12.20;99.90;;;;;;4196518;28;20193;-54
2024/04/05 00:08:16;;;;;;;7.23;2.37;;;12.30;99.90;;;;;;4197225;28;20623;-54
2024/04/05 00:10:16;;;;;;;8.07;2.27;;;12.20;99.90;;;;;;4191433;28;20190;-54
2024/04/05 00:12:17;;;;;;;10.63;2.60;;;12.30;99.90;;;;;;4195189;28;20566;-54
2024/04/05 00:14:17;;;;;;;5.57;2.37;;;12.30;99.90;;;;;;4197550;28;20524;-54
2024/04/05 00:16:18;;;;;;;7.03;2.37;;;12.30;99.90;;;;;;4196491;28;20197;-55
2024/04/05 00:18:20;;;;;;;5.13;2.27;;;12.40;99.90;;;;;;4197022;28;20205;-54
2024/04/05 00:20:20;;;;;;;5.10;2.30;;;12.40;99.90;;;;;;4197248;28;20675;-54
2024/04/05 00:22:22;;;;;;;8.30;2.53;;;12.40;99.90;;;;;;4197051;28;20189;-54
2024/04/05 00:24:22;;;;;;;9.20;2.50;;;12.40;99.90;;;;;;4196968;28;20192;-54
2024/04/05 00:26:23;;;;;;;9.03;2.67;;;12.40;99.90;;;;;;4196432;28;20539;-54
2024/04/05 00:28:24;;;;;;;5.60;2.10;;;12.40;99.90;;;;;;4196651;28;20186;-54
2024/04/05 00:30:24;;;;;;;7.67;2.37;;;12.40;99.90;;;;;;4197088;28;20194;-54
2024/04/05 00:32:25;;;;;;;7.90;2.47;;;12.40;99.90;;;;;;4196728;28;20264;-54
2024/04/05 00:34:26;;;;;;;8.17;2.47;;;12.40;99.90;;;;;;4196987;28;20246;-54
2024/04/05 00:36:27;;;;;;;6.07;2.20;;;12.40;99.90;;;;;;4195954;28;20643;-54
2024/04/05 00:38:27;;;;;;;8.27;2.57;;;12.40;99.90;;;;;;4196824;28;20220;-54
2024/04/05 00:40:28;;;;;;;10.87;2.40;;;12.40;99.90;;;;;;4196911;28;20181;-54
2024/04/05 00:42:28;;;;;;;6.67;2.07;;;12.40;99.90;;;;;;4191116;28;20185;-54
2024/04/05 00:44:29;;;;;;;7.87;2.33;;;12.40;99.90;;;;;;4196612;28;20685;-54
2024/04/05 00:46:29;;;;;;;7.07;2.33;;;12.40;99.90;;;;;;4188731;28;20257;-55
2024/04/05 00:48:33;;;;;;;7.30;2.40;;;12.40;99.90;;;;;;4196739;28;20193;-54
2024/04/05 00:50:35;;;;;;;5.10;2.17;;;12.40;99.90;;;;;;4196680;28;20280;-54
2024/04/05 00:52:36;;;;;;;6.93;2.40;;;12.40;99.90;;;;;;4196582;28;20688;-54
2024/04/05 00:54:37;;;;;;;8.07;2.77;;;12.40;99.90;;;;;;4196618;28;20185;-54
2024/04/05 00:56:37;;;;;;;5.10;2.43;;;12.40;99.90;;;;;;4196167;28;20623;-54
2024/04/05 00:58:39;;;;;;;9.50;2.40;;;12.40;99.90;;;;;;4191933;28;20213;-54
2024/04/05 01:00:39;;;;;;;7.87;2.90;;;12.40;99.90;;;;;;4192055;28;20192;-54
2024/04/05 01:02:40;;;;;;;7.10;2.17;;;12.40;99.90;;;;;;4196192;28;20266;-54
2024/04/05 01:04:41;;;;;;;9.87;2.53;;;12.50;99.90;;;;;;4195189;28;20227;-54
2024/04/05 01:06:42;;;;;;;7.33;2.30;;;12.50;99.90;;;;;;4195762;28;20215;-54
2024/04/05 01:08:43;;;;;;;5.67;2.33;;;12.50;99.90;;;;;;4196139;28;20543;-54
2024/04/05 01:10:44;;;;;;;5.90;2.27;;;12.50;99.90;;;;;;4196256;28;20188;-54
2024/04/05 01:12:44;;;;;;;8.43;2.47;;;12.50;99.90;;;;;;4196324;28;20283;-54
2024/04/05 01:14:45;;;;;;;7.30;2.70;;;12.60;99.90;;;;;;4196326;28;20716;-54
2024/04/05 01:16:45;;;;;;;4.80;1.97;;;12.60;99.90;;;;;;4195731;28;20177;-54
2024/04/05 01:18:47;;;;;;;7.50;2.40;;;12.60;99.90;;;;;;4196133;28;20216;-54
2024/04/05 01:20:52;;;;;;;8.83;2.50;;;12.60;99.90;;;;;;4196318;28;20268;-54
2024/04/05 01:22:53;;;;;;;7.93;2.23;;;12.60;99.90;;;;;;4196044;28;20228;-54
2024/04/05 01:24:54;;;;;;;6.30;2.30;;;12.60;99.90;;;;;;4195994;28;20268;-54
2024/04/05 01:26:54;;;;;;;5.47;2.13;;;12.60;99.90;;;;;;4195154;28;20200;-54
2024/04/05 01:28:55;;;;;;;6.17;2.00;;;12.60;99.90;;;;;;4195798;28;20192;-54
2024/04/05 01:30:55;;;;;;;6.10;2.07;;;12.60;99.90;;;;;;4195861;28;20268;-55
2024/04/05 01:32:58;;;;;;;6.67;2.10;;;12.60;99.90;;;;;;4195966;28;20182;-54
2024/04/05 01:34:58;;;;;;;8.87;2.70;;;12.60;99.90;;;;;;4195401;28;20279;-54
2024/04/05 01:37:00;;;;;;;7.10;2.30;;;12.60;99.90;;;;;;4195094;28;20193;-54
2024/04/05 01:39:00;;;;;;;5.57;2.10;;;12.60;99.90;;;;;;4194472;28;20658;-54
2024/04/05 01:41:01;;;;;;;6.30;2.27;;;12.60;99.90;;;;;;4195996;28;20188;-54
2024/04/05 01:43:01;;;;;;;5.43;2.40;;;12.60;99.90;;;;;;4195958;28;20240;-54
2024/04/05 01:45:03;;;;;;;9.27;2.40;;;12.60;99.90;;;;;;4195834;28;20193;-54
2024/04/05 01:47:03;;;;;;;6.80;2.23;;;12.60;99.90;;;;;;4194802;28;20255;-54
2024/04/05 01:49:04;;;;;;;5.00;1.90;;;12.70;99.90;;;;;;4195649;28;20185;-54
2024/04/05 01:51:04;;;;;;;8.40;2.30;;;12.60;99.90;;;;;;4196116;28;20573;-54
2024/04/05 01:53:05;;;;;;;7.17;2.47;;;12.60;99.90;;;;;;4182158;28;20184;-54
2024/04/05 01:55:06;;;;;;;7.10;2.30;;;12.70;99.90;;;;;;4195690;28;20693;-54
2024/04/05 01:57:06;;;;;;;6.07;2.27;;;12.60;99.90;;;;;;4195012;28;20184;-55
2024/04/05 01:59:08;;;;;;;8.77;2.27;;;12.60;99.90;;;;;;4194239;28;20201;-54
2024/04/05 02:01:08;;;;;;;8.00;2.40;;;12.70;99.90;;;;;;4195557;28;20323;-54
2024/04/05 02:03:09;;;;;;;8.10;2.23;;;12.60;99.90;;;;;;4195596;28;20593;-55
2024/04/05 02:05:09;;;;;;;8.20;2.40;;;12.70;99.90;;;;;;4195616;28;20181;-54
2024/04/05 02:07:10;;;;;;;5.20;2.17;;;12.70;99.90;;;;;;4194455;28;20177;-54
2024/04/05 02:09:12;;;;;;;6.77;2.30;;;12.60;99.90;;;;;;4194774;28;20235;-54
2024/04/05 02:11:12;;;;;;;6.60;2.20;;;12.70;99.90;;;;;;4187421;28;20174;-54
2024/04/05 02:13:13;;;;;;;6.17;2.13;;;12.70;99.90;;;;;;4195405;28;20650;-54
2024/04/05 02:15:13;;;;;;;6.17;2.27;;;12.60;99.90;;;;;;4195486;28;20174;-54
2024/04/05 02:17:14;;;;;;;6.43;2.30;;;12.70;99.90;;;;;;4194379;28;20177;-54
2024/04/05 02:19:14;;;;;;;5.93;2.30;;;12.60;99.90;;;;;;4195225;28;20177;-54
2024/04/05 02:21:15;;;;;;;8.90;2.50;;;12.70;99.90;;;;;;4195415;28;20184;-54
2024/04/05 02:23:15;;;;;;;6.07;2.03;;;12.70;99.90;;;;;;4195378;28;20185;-54
2024/04/05 02:25:16;;;;;;;6.93;2.10;;;12.70;99.90;;;;;;4195321;28;20897;-54
2024/04/05 02:27:16;;;;;;;8.85;2.70;;;12.70;99.90;;;;;;4194359;28;20351;-55
2024/04/05 02:29:18;;;;;;;7.80;2.50;;;12.70;99.90;;;;;;4195309;28;20189;-54
2024/04/05 02:31:18;;;;;;;4.60;2.10;;;12.70;99.90;;;;;;4195520;28;20623;-54
2024/04/05 02:33:19;;;;;;;7.50;2.20;;;12.70;99.90;;;;;;4195161;28;20170;-54
2024/04/05 02:35:19;;;;;;;7.90;2.43;;;12.70;99.90;;;;;;4194594;28;20576;-55
2024/04/05 02:37:20;;;;;;;6.60;2.10;;;12.60;99.90;;;;;;4193994;28;20188;-54
2024/04/05 02:39:21;;;;;;;5.22;1.73;;;12.70;99.90;;;;;;4195433;28;20172;-54
2024/04/05 02:41:21;;;;;;;7.00;2.03;;;12.70;99.90;;;;;;4189708;28;20181;-54
2024/04/05 02:43:22;;;;;;;8.27;2.30;;;12.70;99.90;;;;;;4195255;28;20398;-55
2024/04/05 02:45:22;;;;;;;9.00;2.70;;;12.70;99.90;;;;;;4195393;28;20208;-54
2024/04/05 02:47:23;;;;;;;5.65;2.13;;;12.70;99.90;;;;;;4194231;28;20337;-54
2024/04/05 02:49:24;;;;;;;9.23;2.53;;;12.70;99.90;;;;;;4195205;28;20201;-54
2024/04/05 02:51:24;;;;;;;5.63;2.03;;;12.70;99.90;;;;;;4194843;28;20181;-54
2024/04/05 02:53:26;;;;;;;7.28;2.33;;;12.80;99.90;;;;;;4195397;28;20527;-55
2024/04/05 02:55:26;;;;;;;7.13;2.33;;;12.80;99.90;;;;;;4195449;28;20438;-54
2024/04/05 02:57:27;;;;;;;7.63;2.30;;;12.80;99.90;;;;;;4194146;28;20247;-55
2024/04/05 02:59:27;;;;;;;8.10;1.87;;;12.80;99.90;;;;;;4194800;28;20170;-54
2024/04/05 03:01:28;;;;;;;6.97;2.35;;;12.90;99.90;;;;;;4195042;28;20567;-54
2024/04/05 03:03:29;;;;;;;6.40;2.20;;;12.80;99.90;;;;;;4195292;28;20173;-55
2024/04/05 03:05:29;;;;;;;5.77;2.17;;;12.80;99.90;;;;;;4195269;28;20217;-55
2024/04/05 03:07:30;;;;;;;6.73;2.23;;;12.80;99.90;;;;;;4194035;28;20181;-55
2024/04/05 03:09:31;;;;;;;6.25;2.20;;;12.80;99.90;;;;;;4193782;28;20181;-55
2024/04/05 03:11:31;;;;;;;6.17;2.07;;;12.90;99.90;;;;;;4187451;28;20521;-55
2024/04/05 03:13:32;;;;;;;5.73;2.33;;;12.90;99.90;;;;;;4194902;28;20200;-55
2024/04/05 03:15:33;;;;;;;6.00;2.10;;;12.90;99.90;;;;;;4194737;28;20232;-54
2024/04/05 03:17:33;;;;;;;6.43;2.20;;;12.90;99.90;;;;;;4193993;28;20368;-55
2024/04/05 03:19:34;;;;;;;6.97;1.90;;;12.90;99.90;;;;;;4195020;28;20178;-54
2024/04/05 03:21:34;;;;;;;5.72;1.85;;;12.90;99.90;;;;;;4198259;28;20208;-55
2024/04/05 03:23:35;;;;;;;6.93;2.30;;;12.90;99.90;;;;;;4197960;28;20177;-55
2024/04/05 03:25:35;;;;;;;5.63;2.30;;;13.00;99.90;;;;;;4198391;28;20178;-55
2024/04/05 03:27:36;;;;;;;7.73;2.17;;;13.00;99.90;;;;;;4197246;28;20346;-55
2024/04/05 03:29:36;;;;;;;4.60;1.95;;;13.00;99.90;;;;;;4197872;28;20598;-55
2024/04/05 03:31:37;;;;;;;4.95;1.80;;;13.00;99.90;;;;;;4197893;28;20520;-55
2024/04/05 03:33:38;;;;;;;6.25;1.88;;;13.00;99.90;;;;;;4197751;28;20179;-54
2024/04/05 03:35:39;;;;;;;4.73;2.10;;;13.00;99.90;;;;;;4197093;28;20165;-55
2024/04/05 03:37:39;;;;;;;5.22;2.38;;;13.00;99.90;;;;;;4197185;28;20209;-55
2024/04/05 03:39:40;;;;;;;8.17;2.40;;;13.00;99.90;;;;;;4197871;28;20174;-54
2024/04/05 03:41:41;;;;;;;7.68;2.40;;;13.00;99.90;;;;;;4190086;28;20217;-54
2024/04/05 03:43:41;;;;;;;6.53;2.20;;;13.10;99.90;;;;;;4197656;28;20238;-54
2024/04/05 03:45:42;;;;;;;6.95;2.33;;;13.10;99.90;;;;;;4197216;28;20180;-54
2024/04/05 03:47:43;;;;;;;6.38;1.83;;;13.00;99.90;;;;;;4197829;28;20642;-54
2024/04/05 03:49:43;;;;;;;5.00;1.95;;;13.00;99.90;;;;;;4197502;28;20227;-54
2024/04/05 03:51:44;;;;;;;5.25;1.73;;;13.00;99.90;;;;;;4197630;28;20185;-54
2024/04/05 03:53:45;;;;;;;5.30;2.10;;;13.00;99.90;;;;;;4197603;28;20185;-55
2024/04/05 03:55:45;;;;;;;5.47;1.95;;;13.00;99.90;;;;;;4196628;28;20181;-54
2024/04/05 03:57:51;;;;;;;6.15;2.03;;;13.00;99.90;;;;;;4197083;28;20208;-55
2024/04/05 03:59:51;;;;;;;7.20;1.90;;;12.90;99.90;;;;;;4197671;28;20604;-54
2024/04/05 04:01:52;;;;;;;6.90;2.10;;;12.90;99.90;;;;;;4197602;28;20180;-54
2024/04/05 04:03:53;;;;;;;7.93;2.15;;;12.90;99.90;;;;;;4197738;28;20545;-55
2024/04/05 04:05:54;;;;;;;4.28;1.85;;;12.90;99.90;;;;;;4196730;28;20177;-54
2024/04/05 04:07:54;;;;;;;6.03;2.10;;;12.80;99.90;;;;;;4197362;28;20193;-54
2024/04/05 04:09:55;;;;;;;6.50;1.98;;;12.80;99.90;;;;;;4197514;28;20189;-54
2024/04/05 04:11:55;;;;;;;6.13;1.95;;;12.80;99.90;;;;;;4195847;28;20185;-54
2024/04/05 04:13:56;;;;;;;6.18;1.98;;;12.80;99.90;;;;;;4196800;28;20666;-54
2024/04/05 04:15:58;;;;;;;5.15;2.22;;;12.70;99.90;;;;;;4196645;28;20189;-54
2024/04/05 04:17:58;;;;;;;5.00;1.95;;;12.70;99.90;;;;;;4196789;28;20213;-54
2024/04/05 04:20:00;;;;;;;4.78;1.95;;;12.70;99.90;;;;;;4197281;28;20189;-54
2024/04/05 04:22:01;;;;;;;4.07;1.80;;;12.70;99.90;;;;;;4197126;28;20181;-54
2024/04/05 04:24:01;;;;;;;4.68;1.70;;;12.70;99.90;;;;;;4197131;28;20262;-54
2024/04/05 04:26:02;;;;;;;4.82;1.80;;;12.70;99.90;;;;;;4196616;28;20665;-54
2024/04/05 04:28:03;;;;;;;5.05;1.73;;;12.60;99.90;;;;;;4196979;28;20178;-54
2024/04/05 04:30:06;;;;;;;5.07;2.10;;;12.70;99.90;;;;;;4197085;28;20186;-54
2024/04/05 04:32:07;;;;;;;4.20;1.55;;;12.70;99.90;;;;;;4196760;28;20602;-55
2024/04/05 04:34:08;;;;;;;4.43;1.53;;;12.70;99.90;;;;;;4196896;28;20239;-54
2024/04/05 04:36:08;;;;;;;5.03;2.13;;;12.70;99.90;;;;;;4195567;28;20264;-54
2024/04/05 04:38:09;;;;;;;3.03;1.40;;;12.60;99.90;;;;;;4188387;28;20206;-55
2024/04/05 04:40:11;;;;;;;4.85;1.63;;;12.60;99.90;;;;;;4187742;28;20182;-54
2024/04/05 04:42:12;;;;;;;3.97;1.60;;;12.60;99.90;;;;;;4195314;28;20627;-55
2024/04/05 04:44:12;;;;;;;4.55;1.75;;;12.60;99.90;;;;;;4196838;28;20181;-55
2024/04/05 04:46:16;;;;;;;6.30;2.00;;;12.60;99.90;;;;;;4196187;28;20580;-54
2024/04/05 04:48:16;;;;;;;4.65;1.73;;;12.60;99.90;;;;;;4196644;28;20239;-54
2024/04/05 04:50:17;;;;;;;4.03;1.50;;;12.60;99.90;;;;;;4196713;28;20189;-55
2024/04/05 04:52:17;;;;;;;3.65;1.60;;;12.60;99.90;;;;;;4196791;28;20217;-54
2024/04/05 04:54:18;;;;;;;3.72;1.40;;;12.60;99.90;;;;;;4196661;28;20189;-54
2024/04/05 04:56:18;;;;;;;5.65;1.95;;;12.60;99.90;;;;;;4196094;28;20723;-54
2024/04/05 04:58:22;;;;;;;4.68;1.60;;;12.60;99.90;;;;;;4196483;28;20549;-54
2024/04/05 05:00:23;;;;;;;2.58;1.35;;;12.50;99.90;;;;;;4196525;28;20182;-54
2024/04/05 05:02:23;;;;;;;3.85;1.42;;;12.50;99.90;;;;;;4196329;28;20184;-54
2024/04/05 05:04:24;;;;;;;3.50;1.73;;;12.50;99.90;;;;;;4196549;28;20313;-54
2024/04/05 05:06:25;;;;;;;5.35;1.88;;;12.50;99.90;;;;;;4195712;28;20264;-55
2024/04/05 05:08:25;;;;;;;4.33;1.67;;;12.50;99.90;;;;;;4196289;28;20185;-55
2024/04/05 05:10:26;;;;;;;4.38;1.60;;;12.50;99.90;;;;;;4189391;28;20193;-54
2024/04/05 05:12:26;;;;;;;5.55;1.88;;;12.50;99.90;;;;;;4196342;28;20552;-54
2024/04/05 05:14:27;;;;;;;3.97;1.50;;;12.50;99.90;;;;;;4196165;28;20207;-54
2024/04/05 05:16:27;;;;;;;3.90;1.43;;;12.40;99.90;;;;;;4195658;28;20315;-55
2024/04/05 05:18:28;;;;;;;2.78;1.40;;;12.40;99.90;;;;;;4196347;28;20452;-54
2024/04/05 05:20:28;;;;;;;3.95;1.58;;;12.40;99.90;;;;;;4196269;28;20244;-54
2024/04/05 05:22:29;;;;;;;6.05;1.90;;;12.40;99.90;;;;;;4196084;28;20593;-54
2024/04/05 05:24:30;;;;;;;2.83;1.43;;;12.40;99.90;;;;;;4195971;28;20191;-54
2024/04/05 05:26:31;;;;;;;5.53;1.60;;;12.40;99.90;;;;;;4195530;28;20181;-55
2024/04/05 05:28:31;;;;;;;4.53;1.70;;;12.40;99.90;;;;;;4195857;28;20643;-54
2024/04/05 05:30:32;;;;;;;2.85;1.48;;;12.40;99.90;;;;;;4196421;28;20208;-54
2024/04/05 05:32:33;;;;;;;3.67;1.70;;;12.40;99.90;;;;;;4196105;28;20174;-54
2024/04/05 05:34:33;;;;;;;3.28;1.45;;;12.40;99.90;;;;;;4195800;28;20189;-55
2024/04/05 05:36:34;;;;;;;4.60;1.87;;;12.40;99.90;;;;;;4194438;28;20245;-54
2024/04/05 05:38:34;;;;;;;4.00;1.63;;;12.40;99.90;;;;;;4195622;28;20729;-55
2024/04/05 05:40:35;;;;;;;2.50;1.70;;;12.50;99.90;;;;;;4195815;28;20185;-54
2024/04/05 05:42:36;;;;;;;4.50;1.70;;;12.50;99.90;;;;;;4195357;28;20169;-54
2024/04/05 05:44:36;;;;;;;4.60;1.70;;;12.50;99.90;;;;;;4194459;28;20180;-54
2024/04/05 05:46:37;;;;;;;4.55;1.40;;;12.50;99.90;;;;;;4195112;28;20220;-55
2024/04/05 05:48:37;;;;;;;4.25;1.95;;;12.50;99.90;;;;;;4195570;28;20654;-54
2024/04/05 05:50:38;;;;;;;4.13;2.07;;;12.60;99.90;;;;;;4196258;28;20178;-54
2024/04/05 05:52:38;;;;;;;4.45;2.03;;;12.60;99.90;;;;;;4195828;28;20533;-54
2024/04/05 05:54:39;;;;;;;3.42;1.80;;;12.60;99.90;;;;;;4195604;28;20196;-55
2024/04/05 05:56:39;;;;;;;4.05;1.60;;;12.60;99.90;;;;;;4194930;28;20234;-55
2024/04/05 05:58:40;;;;;;;3.75;1.85;;;12.60;99.90;;;;;;4195730;28;20200;-55
2024/04/05 06:00:41;;;;;;;4.22;2.05;;;12.60;99.90;;;;;;4195732;28;20177;-54
2024/04/05 06:02:41;;;;;;;3.15;1.65;;;12.70;99.90;;;;;;4195416;28;20228;-55
2024/04/05 06:04:43;;;;;;;5.03;2.00;;;12.70;99.90;;;;;;4195850;28;20193;-55
2024/04/05 06:06:43;;;;;;;3.67;1.50;;;12.70;99.90;;;;;;4194664;28;20200;-55
2024/04/05 06:08:44;;;;;;;3.08;1.92;;;12.70;99.90;;;;;;4195252;28;20547;-54
2024/04/05 06:10:55;;;;;;;5.13;1.83;;;12.80;99.90;;;;;;4194330;28;20190;-54
2024/04/05 06:12:56;;;;;;;4.13;2.27;;;12.80;99.90;;;;;;4195555;28;20582;-55
2024/04/05 06:14:58;;;;;;;3.47;2.03;;;12.80;99.90;;;;;;4195733;28;20326;-54
2024/04/05 06:16:59;;;;;;;2.97;1.80;;;12.80;99.90;;;;;;4194718;28;20203;-54
2024/04/05 06:18:59;;;;;;;2.92;1.80;;;12.80;99.90;;;;;;4195259;28;20233;-54
2024/04/05 06:21:00;;;;;;;3.33;1.80;;;12.80;99.90;;;;;;4195363;28;20173;-54
2024/04/05 06:23:00;;;;;;;6.90;3.88;;;12.90;99.90;;;;;;4195027;28;20513;-54
2024/04/05 06:25:01;;;;;;;4.28;2.40;;;12.90;99.90;;;;;;4195295;28;20187;-54
2024/04/05 06:27:02;;;;;;;3.88;1.92;;;12.90;99.90;;;;;;4194631;28;20681;-55
2024/04/05 06:29:03;;;;;;;4.75;1.70;;;13.00;99.90;;;;;;4195269;28;20185;-55
2024/04/05 06:31:04;;;;;;;3.75;1.40;;;13.00;99.90;;;;;;4195218;28;20174;-55
2024/04/05 06:33:04;;;;;;;4.43;1.80;;;13.00;99.90;;;;;;4184508;28;20182;-55
2024/04/05 06:35:05;;;;;;;3.58;1.80;;;13.00;99.90;;;;;;4193955;28;20181;-54
2024/04/05 06:37:06;;;;;;;4.45;1.95;;;13.00;99.90;;;;;;4194431;28;20197;-55
2024/04/05 06:39:07;;;;;;;3.95;1.50;;;13.10;99.90;;;;;;4195016;28;20203;-55
2024/04/05 06:41:08;;;;;;;2.72;1.50;;;13.10;99.90;;;;;;4195381;28;20184;-55
2024/04/05 06:43:10;;;;;;;4.90;1.70;;;13.20;99.90;;;;;;4194910;28;20177;-55
2024/04/05 06:45:11;;;;;;;4.18;1.50;;;13.20;99.90;;;;;;4195234;28;20636;-55
2024/04/05 06:47:12;;;;;;;3.50;1.52;;;13.20;99.90;;;;;;4193933;28;20174;-55
2024/04/05 06:49:14;;;;;;;2.70;1.52;;;13.20;99.90;;;;;;4195201;28;20181;-55
2024/04/05 06:51:16;;;;;;;2.53;1.38;;;13.30;99.90;;;;;;4195004;28;20557;-55
2024/04/05 06:53:21;;;;;;;4.55;1.83;;;13.30;99.90;;;;;;4195121;28;20277;-55
2024/04/05 06:55:22;;;;;;;2.13;1.40;;;13.30;99.90;;;;;;4197870;28;20181;-55
2024/04/05 06:57:22;;;;;;;4.63;1.73;;;13.40;99.90;;;;;;4198336;28;20715;-55
2024/04/05 06:59:23;;;;;;;2.78;1.50;;;13.40;99.90;;;;;;4203372;28;20181;-55
2024/04/05 07:01:23;;;;;;;2.75;1.45;;;13.40;99.90;;;;;;4198450;28;20173;-54
2024/04/05 07:03:24;;;;;;;3.50;1.70;;;13.50;99.90;;;;;;4190537;28;20840;-55
2024/04/05 07:05:24;;;;;;;3.45;1.33;;;13.60;99.90;;;;;;4197158;28;20719;-55
2024/04/05 07:07:25;;;;;;;3.53;1.55;;;13.60;99.90;;;;;;4197902;28;20234;-55
2024/04/05 07:09:27;;;;;;;2.53;1.30;;;13.70;99.90;;;;;;4198156;28;20189;-55
2024/04/05 07:11:28;;;;;;;5.15;1.77;;;13.70;99.90;;;;;;4191104;28;20733;-55
2024/04/05 07:13:31;;;;;;;4.78;1.92;;;13.70;99.90;;;;;;4198051;28;20184;-55
2024/04/05 07:15:31;;;;;;;3.33;1.60;;;13.80;99.90;;;;;;4197583;28;20204;-54
2024/04/05 07:17:32;;;;;;;2.60;1.33;;;13.80;99.90;;;;;;4198245;28;20181;-55
2024/04/05 07:19:33;;;;;;;3.58;1.50;;;13.80;99.90;;;;;;4193043;28;20211;-55
2024/04/05 07:21:33;;;;;;;4.75;1.45;;;13.80;99.90;;;;;;4197505;28;20181;-55
2024/04/05 07:23:34;;;;;;;2.50;1.30;;;13.90;99.90;;;;;;4197986;28;20169;-55
2024/04/05 07:25:35;;;;;;;4.40;1.35;;;13.90;99.90;;;;;;4197469;28;20258;-55
2024/04/05 07:27:35;;;;;;;4.38;1.65;;;13.90;99.90;;;;;;4198049;28;20185;-54
2024/04/05 07:29:37;;;;;;;3.83;1.75;;;13.90;99.90;;;;;;4198006;28;20166;-55
2024/04/05 07:31:38;;;;;;;4.25;1.40;;;13.90;99.90;;;;;;4197251;28;20250;-55
2024/04/05 07:33:39;;;;;;;3.03;1.23;;;13.90;99.90;;;;;;4197838;28;20639;-55
2024/04/05 07:35:40;;;;;;;3.42;1.33;;;13.90;99.90;;;;;;4196793;28;20205;-55
2024/04/05 07:37:40;;;;;;;3.63;1.43;;;13.90;99.90;;;;;;4197780;28;20200;-55
2024/04/05 07:39:42;;;;;;;2.80;1.58;;;13.90;99.90;;;;;;4197902;28;20186;-55
2024/04/05 07:41:42;;;;;;;3.63;1.40;;;14.00;99.90;;;;;;4197547;28;20181;-54
2024/04/05 07:43:43;;;;;;;2.35;1.38;;;14.00;99.90;;;;;;4193886;28;20740;-55
2024/04/05 07:45:44;;;;;;;2.35;1.52;;;14.00;99.90;;;;;;4196723;28;20319;-55
2024/04/05 07:47:47;;;;;;;3.03;1.27;;;14.00;99.90;;;;;;4197785;28;20177;-55
2024/04/05 07:49:54;;;;;;;2.88;1.48;;;14.00;99.90;;;;;;4197674;28;20180;-55
2024/04/05 07:51:54;;;;;;;3.97;1.50;;;14.00;99.90;;;;;;4197850;28;20715;-55
2024/04/05 07:53:55;;;;;;;2.17;1.30;;;14.10;99.90;;;;;;4191271;28;20190;-55
2024/04/05 07:55:55;;;;;;;2.20;1.40;;;14.20;99.90;;;;;;4193648;28;20193;-55
2024/04/05 07:57:56;;;;;;;2.60;1.40;;;14.20;99.90;;;;;;4197523;28;21068;-55
2024/04/05 07:59:57;;;;;;;3.75;1.42;;;14.30;99.90;;;;;;4197493;28;20169;-55
2024/04/05 08:01:58;;;;;;;4.25;1.42;;;14.40;99.90;;;;;;4197468;28;20181;-55
2024/04/05 08:04:00;;;;;;;2.17;1.40;;;14.40;99.90;;;;;;4197201;28;20588;-55
2024/04/05 08:06:01;;;;;;;2.92;1.42;;;14.50;99.90;;;;;;4195735;28;20169;-55
2024/04/05 08:08:01;;;;;;;2.58;1.25;;;14.60;99.90;;;;;;4195883;28;20177;-55
2024/04/05 08:10:02;;;;;;;3.30;1.20;;;14.70;99.90;;;;;;4195260;28;20748;-55
2024/04/05 08:12:03;;;;;;;3.08;1.42;;;14.70;99.90;;;;;;4185525;28;20264;-55
2024/04/05 08:14:04;;;;;;;3.08;1.45;;;14.80;99.90;;;;;;4191397;28;20185;-55
2024/04/05 08:16:06;;;;;;;2.88;1.30;;;14.80;99.90;;;;;;4189951;28;20229;-55
2024/04/05 08:18:07;;;;;;;2.28;1.20;;;14.90;99.90;;;;;;4192192;28;20205;-55
2024/04/05 08:20:07;;;;;;;2.30;1.05;;;14.90;99.90;;;;;;4194616;28;20177;-55
2024/04/05 08:22:08;;;;;;;2.95;1.50;;;15.00;99.90;;;;;;4193550;28;20682;-55
2024/04/05 08:24:09;;;;;;;1.45;0.90;;;15.10;99.90;;;;;;4192486;28;20178;-55
2024/04/05 08:26:10;;;;;;;3.28;1.50;;;15.10;99.90;;;;;;4194038;28;20185;-55
2024/04/05 08:28:11;;;;;;;3.40;1.20;;;15.20;99.90;;;;;;4192275;28;20260;-54
2024/04/05 08:30:18;;;;;;;1.77;0.95;;;15.20;99.90;;;;;;4193996;28;20177;-54
2024/04/05 08:32:18;;;;;;;2.00;1.10;;;15.20;99.90;;;;;;4193663;28;21040;-54
2024/04/05 08:34:20;;;;;;;3.13;1.20;;;15.20;99.90;;;;;;4194216;28;20177;-54
2024/04/05 08:36:20;;;;;;;2.15;1.30;;;15.30;99.90;;;;;;4193043;28;20181;-54
2024/04/05 08:38:21;;;;;;;3.15;1.30;;;15.30;99.90;;;;;;4193979;28;20322;-54
2024/04/05 08:40:22;;;;;;;2.28;1.13;;;15.40;99.90;;;;;;4194944;28;20173;-54
2024/04/05 08:42:24;;;;;;;4.70;1.10;;;15.50;99.90;;;;;;4194329;28;20635;-54
2024/04/05 08:44:26;;;;;;;3.63;1.17;;;15.50;99.90;;;;;;4193939;28;20205;-55
2024/04/05 08:46:28;;;;;;;5.68;1.30;;;15.60;99.90;;;;;;4193410;28;20252;-54
2024/04/05 08:48:32;;;;;;;1.50;1.17;;;15.70;99.90;;;;;;4193606;28;20185;-54
2024/04/05 08:50:34;;;;;;;2.85;1.20;;;15.80;99.90;;;;;;4194287;28;20735;-54
2024/04/05 08:52:35;;;;;;;2.58;1.33;;;15.90;99.90;;;;;;4194323;28;20182;-55
2024/04/05 08:54:36;;;;;;;3.03;1.20;;;16.00;99.90;;;;;;4194072;28;20537;-55
2024/04/05 08:56:38;;;;;;;2.78;1.17;;;16.00;99.90;;;;;;4193488;28;20185;-54
2024/04/05 08:58:39;;;;;;;2.13;1.33;;;16.10;99.90;;;;;;4193855;28;20213;-54
2024/04/05 09:00:40;;;;;;;2.65;1.40;;;16.10;99.90;;;;;;4194318;28;20208;-54
2024/04/05 09:02:43;;;;;;;2.00;1.30;;;16.10;99.90;;;;;;4193475;28;20640;-55
2024/04/05 09:04:43;;;;;;;3.42;1.55;;;16.10;99.90;;;;;;4193683;28;20600;-55
2024/04/05 09:06:44;;;;;;;3.10;1.40;;;16.00;99.90;;;;;;4193331;28;20403;-55
2024/04/05 09:08:46;;;;;;;2.60;1.10;;;16.00;99.90;;;;;;4193914;28;20195;-55
2024/04/05 09:10:50;;;;;;;2.70;1.08;;;16.10;99.90;;;;;;4193718;28;20227;-55
2024/04/05 09:12:53;;;;;;;1.70;1.05;;;16.10;99.90;;;;;;4190812;28;20192;-55
2024/04/05 09:14:57;;;;;;;3.17;1.33;;;16.10;99.90;;;;;;4193660;28;20185;-55
2024/04/05 09:16:58;;;;;;;2.35;1.10;;;16.10;99.90;;;;;;4190678;28;20200;-55
2024/04/05 09:19:09;;;;;;;1.90;1.15;;;16.20;99.90;;;;;;4192607;28;20209;-54
2024/04/05 09:21:12;;;;;;;3.00;1.00;;;16.30;99.90;;;;;;4194535;28;20188;-55
2024/04/05 09:23:12;;;;;;;1.60;1.17;;;16.40;99.90;;;;;;4193308;28;20173;-55
2024/04/05 09:25:15;;;;;;;1.38;1.00;;;16.40;99.90;;;;;;4192631;28;20223;-55
2024/04/05 09:27:20;;;;;;;3.33;1.10;;;16.50;99.90;;;;;;4193534;28;20295;-55
2024/04/05 09:29:20;;;;;;;2.22;1.27;;;16.50;99.90;;;;;;4190842;28;20318;-55
2024/04/05 09:31:21;;;;;;;2.47;1.20;;;16.50;99.90;;;;;;4193341;28;20188;-55
2024/04/05 09:33:22;;;;;;;2.22;1.10;;;16.50;99.90;;;;;;4190609;28;20679;-55
2024/04/05 09:35:25;;;;;;;2.83;1.10;;;16.50;99.90;;;;;;4189287;28;20185;-55
2024/04/05 09:37:27;;;;;;;2.30;1.10;;;16.50;99.90;;;;;;4191251;28;20278;-55
2024/04/05 09:39:30;;;;;;;2.10;1.10;;;16.50;99.90;;;;;;4191648;28;20189;-55
2024/04/05 09:41:35;;;;;;;2.05;1.15;;;16.50;99.90;;;;;;4191834;28;20411;-55
2024/04/05 09:43:37;;;;;;;3.08;1.30;;;16.40;99.90;;;;;;4190714;28;20181;-55
2024/04/05 09:45:42;;;;;;;3.83;1.23;;;16.40;99.90;;;;;;4190458;28;20178;-55
2024/04/05 09:47:44;;;;;;;3.72;1.30;;;16.40;99.90;;;;;;4193019;28;20611;-55
2024/04/05 09:49:45;;;;;;;2.67;1.30;;;16.40;99.90;;;;;;4191390;28;20656;-55
2024/04/05 09:51:51;;;;;;;2.40;1.20;;;16.40;99.90;;;;;;4192068;28;20255;-56
2024/04/05 09:53:52;;;;;;;4.65;1.50;;;16.40;99.90;;;;;;4192679;28;20174;-56
2024/04/05 09:55:57;;;;;;;2.88;1.42;;;16.40;99.90;;;;;;4192380;28;20196;-56
2024/04/05 09:57:58;;;;;;;2.67;1.20;;;16.50;99.90;;;;;;4189388;28;20213;-56
2024/04/05 09:59:58;;;;;;;2.28;1.23;;;16.40;99.90;;;;;;4191887;28;20757;-56
2024/04/05 10:01:59;;;;;;;3.75;1.63;;;16.50;99.90;;;;;;4192735;28;20177;-56
2024/04/05 10:04:00;;;;;;;1.70;1.10;;;16.50;99.90;;;;;;4192750;28;20345;-56
2024/04/05 10:06:15;;;;;;;2.67;1.05;;;16.50;99.90;;;;;;4192054;28;20189;-56
2024/04/05 10:08:16;;;;;;;6.43;1.45;;;16.50;99.90;;;;;;4193830;28;20271;-56
2024/04/05 10:10:32;;;;;;;3.33;1.50;;;16.50;99.90;;;;;;4192650;28;20798;-58
2024/04/05 10:12:33;;;;;;;3.30;1.33;;;16.50;99.90;;;;;;4190353;28;20184;-57
2024/04/05 10:14:36;;;;;;;2.92;1.30;;;16.50;99.90;;;;;;4192316;28;20678;-56
2024/04/05 10:16:37;;;;;;;2.65;1.50;;;16.50;99.90;;;;;;4192742;28;20530;-56
2024/04/05 10:18:39;;;;;;;2.63;1.40;;;16.50;99.90;;;;;;4189845;28;20466;-56
2024/04/05 10:20:39;;;;;;;3.38;1.48;;;16.60;99.90;;;;;;4192536;28;20295;-56
2024/04/05 10:22:40;;;;;;;2.33;1.10;;;16.70;99.90;;;;;;4192155;28;20185;-56
2024/04/05 10:24:40;;;;;;;1.70;1.20;;;16.70;99.90;;;;;;4192072;28;20173;-56
2024/04/05 10:26:51;;;;;;;3.80;1.40;;;16.70;99.90;;;;;;4191383;28;20255;-56
2024/04/05 10:29:04;;;;;;;4.57;1.90;;;16.80;99.90;;;;;;4189744;28;20204;-56
2024/04/05 10:31:07;;;;;;;3.65;1.50;;;16.80;99.90;;;;;;4191649;28;20185;-56